createdAt,value
2018-09-29T00:00:00.691Z,79.69
2018-09-29T00:01:00.680Z,79.90
2018-09-29T00:02:00.683Z,79.69
2018-09-29T00:03:00.716Z,79.94
2018-09-29T00:04:00.646Z,79.69
2018-09-29T00:05:00.645Z,80.04
2018-09-29T00:06:10.178Z,79.49
2018-09-29T00:07:00.644Z,79.38
2018-09-29T00:08:00.641Z,79.83
2018-09-29T00:09:00.749Z,79.90
2018-09-29T00:10:00.718Z,79.90
2018-09-29T00:11:00.650Z,79.80
2018-09-29T00:12:00.615Z,80.04
2018-09-29T00:13:00.598Z,79.94
2018-09-29T00:14:00.530Z,79.90
2018-09-29T00:15:00.511Z,79.94
2018-09-29T00:16:00.537Z,79.94
2018-09-29T00:17:00.505Z,79.52
2018-09-29T00:18:00.501Z,79.94
2018-09-29T00:19:00.476Z,79.94
2018-09-29T00:20:00.508Z,80.46
2018-09-29T00:21:00.517Z,79.94
2018-09-29T00:22:08.122Z,80.39
2018-09-29T00:23:00.636Z,80.87
2018-09-29T00:24:00.593Z,80.97
2018-09-29T00:25:00.584Z,80.49
2018-09-29T00:26:00.564Z,80.97
2018-09-29T00:27:00.436Z,81.07
2018-09-29T00:28:00.406Z,80.76
2018-09-29T00:29:00.413Z,80.76
2018-09-29T00:30:00.402Z,80.25
2018-09-29T00:31:00.362Z,80.56
2018-09-29T00:32:00.393Z,79.94
2018-09-29T00:33:00.327Z,79.63
2018-09-29T00:34:00.338Z,78.70
2018-09-29T00:35:08.425Z,79.83
2018-09-29T00:36:00.315Z,79.97
2018-09-29T00:37:00.443Z,80.18
2018-09-29T00:38:00.332Z,80.18
2018-09-29T00:39:00.432Z,80.90
2018-09-29T00:40:00.307Z,80.80
2018-09-29T00:41:00.239Z,80.90
2018-09-29T00:42:00.279Z,81.01
2018-09-29T00:43:00.246Z,80.39
2018-09-29T00:44:00.209Z,80.08
2018-09-29T00:45:00.218Z,79.66
2018-09-29T00:46:00.182Z,80.46
2018-09-29T00:47:00.185Z,80.08
2018-09-29T00:48:00.148Z,79.97
2018-09-29T00:49:10.812Z,79.66
2018-09-29T00:50:00.345Z,79.77
2018-09-29T00:51:00.292Z,79.66
2018-09-29T00:52:00.161Z,80.11
2018-09-29T00:53:00.429Z,80.60
2018-09-29T00:54:00.130Z,80.74
2018-09-29T00:55:00.094Z,80.63
2018-09-29T00:56:00.062Z,80.94
2018-09-29T00:57:00.160Z,80.53
2018-09-29T00:58:00.081Z,80.94
2018-09-29T00:59:00.037Z,80.60
2018-09-29T01:00:00.052Z,80.43
2018-09-29T01:01:00.029Z,80.94
2018-09-29T01:02:00.131Z,80.74
2018-09-29T01:03:08.051Z,80.63
2018-09-29T01:04:00.217Z,80.63
2018-09-29T01:05:00.056Z,80.84
2018-09-29T01:06:00.151Z,80.63
2018-09-29T01:07:00.012Z,80.84
2018-09-29T01:07:59.928Z,80.53
2018-09-29T01:09:00.012Z,80.60
2018-09-29T01:09:59.931Z,81.05
2018-09-29T01:10:59.899Z,81.05
2018-09-29T01:11:59.934Z,80.94
2018-09-29T01:12:59.919Z,80.94
2018-09-29T01:13:59.864Z,81.46
2018-09-29T01:14:59.852Z,81.25
2018-09-29T01:15:59.855Z,81.67
2018-09-29T01:17:10.405Z,81.56
2018-09-29T01:17:59.961Z,81.21
2018-09-29T01:19:00.037Z,81.15
2018-09-29T01:19:59.936Z,81.05
2018-09-29T01:20:59.946Z,82.08
2018-09-29T01:21:59.812Z,81.87
2018-09-29T01:22:59.809Z,80.53
2018-09-29T01:23:59.751Z,81.87
2018-09-29T01:24:59.819Z,81.77
2018-09-29T01:25:59.728Z,81.05
2018-09-29T01:26:59.716Z,80.63
2018-09-29T01:27:59.743Z,80.53
2018-09-29T01:28:59.770Z,81.46
2018-09-29T01:29:59.687Z,81.98
2018-09-29T01:31:09.853Z,81.91
2018-09-29T01:31:59.740Z,81.70
2018-09-29T01:32:59.735Z,81.81
2018-09-29T01:33:59.789Z,82.01
2018-09-29T01:34:59.738Z,81.70
2018-09-29T01:35:59.634Z,80.57
2018-09-29T01:36:59.645Z,80.46
2018-09-29T01:37:59.599Z,80.88
2018-09-29T01:38:59.603Z,80.67
2018-09-29T01:39:59.620Z,81.09
2018-09-29T01:40:59.589Z,80.67
2018-09-29T01:41:59.553Z,80.36
2018-09-29T01:42:59.671Z,80.71
2018-09-29T01:43:59.589Z,80.50
2018-09-29T01:45:08.287Z,80.19
2018-09-29T01:45:59.637Z,80.91
2018-09-29T01:46:59.622Z,80.71
2018-09-29T01:47:59.620Z,80.50
2018-09-29T01:48:59.646Z,80.60
2018-09-29T01:49:59.541Z,81.12
2018-09-29T01:50:59.506Z,80.71
2018-09-29T01:51:59.517Z,80.91
2018-09-29T01:52:59.454Z,81.02
2018-09-29T01:53:59.424Z,80.74
2018-09-29T01:54:59.456Z,80.64
2018-09-29T01:55:59.498Z,81.43
2018-09-29T01:56:59.388Z,81.05
2018-09-29T01:57:59.383Z,81.23
2018-09-29T01:58:59.369Z,81.64
2018-09-29T01:59:59.378Z,81.12
2018-09-29T02:01:07.083Z,81.23
2018-09-29T02:01:59.444Z,81.23
2018-09-29T02:02:59.477Z,80.91
2018-09-29T02:03:59.445Z,80.50
2018-09-29T02:04:59.437Z,81.16
2018-09-29T02:05:59.315Z,80.60
2018-09-29T02:06:59.313Z,81.02
2018-09-29T02:07:59.370Z,80.81
2018-09-29T02:08:59.257Z,81.23
2018-09-29T02:09:59.256Z,80.43
2018-09-29T02:10:59.261Z,80.95
2018-09-29T02:11:59.222Z,80.64
2018-09-29T02:12:59.256Z,81.12
2018-09-29T02:13:59.284Z,81.37
2018-09-29T02:14:59.190Z,80.95
2018-09-29T02:15:59.215Z,80.74
2018-09-29T02:16:59.244Z,81.05
2018-09-29T02:17:59.159Z,80.85
2018-09-29T02:18:59.177Z,80.95
2018-09-29T02:19:59.177Z,81.09
2018-09-29T02:20:59.135Z,81.09
2018-09-29T02:21:59.173Z,80.57
2018-09-29T02:22:59.156Z,81.30
2018-09-29T02:23:59.122Z,81.61
2018-09-29T02:24:59.102Z,82.03
2018-09-29T02:25:59.111Z,82.13
2018-09-29T02:26:59.061Z,82.29
2018-09-29T02:27:59.088Z,81.78
2018-09-29T02:28:59.172Z,80.54
2018-09-29T02:29:59.068Z,80.95
2018-09-29T02:30:59.064Z,81.05
2018-09-29T02:31:59.045Z,80.95
2018-09-29T02:32:58.993Z,81.16
2018-09-29T02:33:58.983Z,81.05
2018-09-29T02:35:07.699Z,81.09
2018-09-29T02:35:59.054Z,80.68
2018-09-29T02:36:58.967Z,81.51
2018-09-29T02:37:59.048Z,81.40
2018-09-29T02:38:59.130Z,81.20
2018-09-29T02:39:58.997Z,80.78
2018-09-29T02:40:58.963Z,80.78
2018-09-29T02:41:58.898Z,80.68
2018-09-29T02:42:58.900Z,81.09
2018-09-29T02:43:58.924Z,80.78
2018-09-29T02:44:58.879Z,80.99
2018-09-29T02:45:58.854Z,80.88
2018-09-29T02:46:58.860Z,81.40
2018-09-29T02:48:08.807Z,81.30
2018-09-29T02:48:58.851Z,80.68
2018-09-29T02:49:58.814Z,81.92
2018-09-29T02:50:58.931Z,82.34
2018-09-29T02:51:58.887Z,81.92
2018-09-29T02:52:58.925Z,81.82
2018-09-29T02:53:58.854Z,81.20
2018-09-29T02:54:58.762Z,80.57
2018-09-29T02:55:58.758Z,80.05
2018-09-29T02:56:58.816Z,79.95
2018-09-29T02:57:58.758Z,80.57
2018-09-29T02:58:58.713Z,80.78
2018-09-29T02:59:58.752Z,80.88
2018-09-29T03:00:58.685Z,80.78
2018-09-29T03:01:58.742Z,80.26
2018-09-29T03:02:58.700Z,80.82
2018-09-29T03:03:58.696Z,80.61
2018-09-29T03:04:58.705Z,81.02
2018-09-29T03:05:58.642Z,81.96
2018-09-29T03:06:58.669Z,81.65
2018-09-29T03:07:58.671Z,81.13
2018-09-29T03:08:58.620Z,80.82
2018-09-29T03:09:58.608Z,81.75
2018-09-29T03:10:58.590Z,81.23
2018-09-29T03:11:58.619Z,81.02
2018-09-29T03:12:58.554Z,80.82
2018-09-29T03:13:58.587Z,81.23
2018-09-29T03:14:58.541Z,80.82
2018-09-29T03:15:58.602Z,80.40
2018-09-29T03:16:58.511Z,80.92
2018-09-29T03:17:58.517Z,80.82
2018-09-29T03:18:58.484Z,80.96
2018-09-29T03:19:58.545Z,80.85
2018-09-29T03:20:58.494Z,80.82
2018-09-29T03:21:58.472Z,81.06
2018-09-29T03:22:58.474Z,81.16
2018-09-29T03:24:07.524Z,81.27
2018-09-29T03:24:58.439Z,81.82
2018-09-29T03:25:58.554Z,81.89
2018-09-29T03:26:58.611Z,82.31
2018-09-29T03:27:58.585Z,82.31
2018-09-29T03:28:58.399Z,82.41
2018-09-29T03:29:58.398Z,82.10
2018-09-29T03:30:58.406Z,81.58
2018-09-29T03:31:58.504Z,82.10
2018-09-29T03:32:58.379Z,81.68
2018-09-29T03:33:58.368Z,81.79
2018-09-29T03:34:58.311Z,81.16
2018-09-29T03:36:06.440Z,81.02
2018-09-29T03:36:58.471Z,80.96
2018-09-29T03:37:58.425Z,80.85
2018-09-29T03:38:58.329Z,82.31
2018-09-29T03:39:58.412Z,81.89
2018-09-29T03:40:58.294Z,82.82
2018-09-29T03:41:58.247Z,82.10
2018-09-29T03:43:06.441Z,82.31
2018-09-29T03:43:58.357Z,82.31
2018-09-29T03:44:58.308Z,81.79
2018-09-29T03:45:58.327Z,81.37
2018-09-29T03:46:58.322Z,81.79
2018-09-29T03:49:12.440Z,81.37
2018-09-29T03:50:12.384Z,81.37
2018-09-29T03:51:12.364Z,81.37
2018-09-29T03:52:12.200Z,82.31
2018-09-29T03:53:12.178Z,82.82
2018-09-29T03:54:12.209Z,82.41
2018-09-29T03:55:12.159Z,82.31
2018-09-29T03:56:12.163Z,81.68
2018-09-29T03:57:12.168Z,81.79
2018-09-29T03:58:12.157Z,81.79
2018-09-29T03:59:12.121Z,81.68
2018-09-29T04:00:12.096Z,81.68
2018-09-29T04:01:12.100Z,82.17
2018-09-29T04:02:21.180Z,81.48
2018-09-29T04:03:12.216Z,80.85
2018-09-29T04:04:12.167Z,81.37
2018-09-29T04:05:12.215Z,81.58
2018-09-29T04:06:12.111Z,82.41
2018-09-29T04:07:12.026Z,81.48
2018-09-29T04:08:12.091Z,81.06
2018-09-29T04:09:12.053Z,80.85
2018-09-29T04:10:12.011Z,80.75
2018-09-29T04:11:12.000Z,81.10
2018-09-29T04:12:11.969Z,81.41
2018-09-29T04:13:12.021Z,81.51
2018-09-29T04:14:11.962Z,80.68
2018-09-29T04:15:11.958Z,80.89
2018-09-29T04:16:11.932Z,80.68
2018-09-29T04:17:11.963Z,81.10
2018-09-29T04:18:11.895Z,81.62
2018-09-29T04:19:11.926Z,82.03
2018-09-29T04:20:11.890Z,82.14
2018-09-29T04:21:20.715Z,81.20
2018-09-29T04:22:11.851Z,81.41
2018-09-29T04:23:11.893Z,82.03
2018-09-29T04:24:11.877Z,81.97
2018-09-29T04:25:12.033Z,81.76
2018-09-29T04:26:11.853Z,82.28
2018-09-29T04:27:11.879Z,83.53
2018-09-29T04:28:11.808Z,81.97
2018-09-29T04:29:11.773Z,82.18
2018-09-29T04:30:11.775Z,82.39
2018-09-29T04:31:11.765Z,83.22
2018-09-29T04:32:11.748Z,82.70
2018-09-29T04:33:11.743Z,81.66
2018-09-29T04:34:11.775Z,82.18
2018-09-29T04:35:11.705Z,82.76
2018-09-29T04:36:11.769Z,82.70
2018-09-29T04:37:11.687Z,82.45
2018-09-29T04:38:11.712Z,82.45
2018-09-29T04:39:20.789Z,81.93
2018-09-29T04:40:11.937Z,82.03
2018-09-29T04:41:11.684Z,82.14
2018-09-29T04:42:11.798Z,81.72
2018-09-29T04:43:11.717Z,81.82
2018-09-29T04:44:11.607Z,82.24
2018-09-29T04:45:11.593Z,82.03
2018-09-29T04:46:11.610Z,81.30
2018-09-29T04:47:11.576Z,81.62
2018-09-29T04:48:11.584Z,82.14
2018-09-29T04:49:11.685Z,82.28
2018-09-29T04:50:11.554Z,82.39
2018-09-29T04:51:11.528Z,82.80
2018-09-29T04:52:11.547Z,82.90
2018-09-29T04:53:11.538Z,82.70
2018-09-29T04:54:11.515Z,82.80
2018-09-29T04:55:11.487Z,83.73
2018-09-29T04:56:11.506Z,83.94
2018-09-29T04:57:20.741Z,83.48
2018-09-29T04:58:11.614Z,84.31
2018-09-29T04:59:11.578Z,83.17
2018-09-29T05:00:11.545Z,82.14
2018-09-29T05:01:11.550Z,82.24
2018-09-29T05:02:19.506Z,82.76
2018-09-29T05:03:11.533Z,83.48
2018-09-29T05:04:11.557Z,82.76
2018-09-29T05:05:11.528Z,82.65
2018-09-29T05:06:11.581Z,82.34
2018-09-29T05:07:11.403Z,83.59
2018-09-29T05:08:11.382Z,83.59
2018-09-29T05:09:11.326Z,82.55
2018-09-29T05:10:11.435Z,82.80
2018-09-29T05:11:11.388Z,83.42
2018-09-29T05:12:11.351Z,83.84
2018-09-29T05:13:11.285Z,83.69
2018-09-29T05:14:11.321Z,83.69
2018-09-29T05:15:19.015Z,83.38
2018-09-29T05:16:11.272Z,82.86
2018-09-29T05:17:11.480Z,83.38
2018-09-29T05:18:11.340Z,82.86
2018-09-29T05:19:11.486Z,83.17
2018-09-29T05:20:11.241Z,82.45
2018-09-29T05:21:11.260Z,82.14
2018-09-29T05:22:11.241Z,82.34
2018-09-29T05:23:11.176Z,81.82
2018-09-29T05:24:11.215Z,81.82
2018-09-29T05:25:11.243Z,81.82
2018-09-29T05:26:11.177Z,82.34
2018-09-29T05:27:11.127Z,82.14
2018-09-29T05:28:11.113Z,82.76
2018-09-29T05:29:11.188Z,83.59
2018-09-29T05:30:11.107Z,84.21
2018-09-29T05:31:11.093Z,83.59
2018-09-29T05:32:11.120Z,84.00
2018-09-29T05:33:18.977Z,83.38
2018-09-29T05:34:11.256Z,84.00
2018-09-29T05:35:11.066Z,83.80
2018-09-29T05:36:11.284Z,83.48
2018-09-29T05:37:11.011Z,84.11
2018-09-29T05:38:11.186Z,84.21
2018-09-29T05:39:11.186Z,83.90
2018-09-29T05:40:11.073Z,84.21
2018-09-29T05:41:10.986Z,83.69
2018-09-29T05:42:10.988Z,83.80
2018-09-29T05:43:11.028Z,83.84
2018-09-29T05:44:10.951Z,83.80
2018-09-29T05:45:10.956Z,83.84
2018-09-29T05:46:10.950Z,84.25
2018-09-29T05:47:10.914Z,83.48
2018-09-29T05:48:10.973Z,83.94
2018-09-29T05:49:10.896Z,84.83
2018-09-29T05:50:10.873Z,84.42
2018-09-29T05:51:10.930Z,84.42
2018-09-29T05:52:10.842Z,84.63
2018-09-29T05:53:10.914Z,85.35
2018-09-29T05:54:10.824Z,84.63
2018-09-29T05:55:10.851Z,84.63
2018-09-29T05:56:10.824Z,85.25
2018-09-29T05:57:10.811Z,84.63
2018-09-29T05:58:10.816Z,84.83
2018-09-29T05:59:10.764Z,84.42
2018-09-29T06:00:10.848Z,84.63
2018-09-29T06:01:10.739Z,84.42
2018-09-29T06:02:10.813Z,84.00
2018-09-29T06:03:10.719Z,84.31
2018-09-29T06:04:10.722Z,84.63
2018-09-29T06:05:10.765Z,84.69
2018-09-29T06:06:10.746Z,85.11
2018-09-29T06:07:10.753Z,84.80
2018-09-29T06:08:10.720Z,84.80
2018-09-29T06:09:10.722Z,84.80
2018-09-29T06:10:10.691Z,85.21
2018-09-29T06:11:10.630Z,84.59
2018-09-29T06:12:18.757Z,84.69
2018-09-29T06:13:10.834Z,84.86
2018-09-29T06:14:10.775Z,85.58
2018-09-29T06:15:10.638Z,85.00
2018-09-29T06:16:10.764Z,85.58
2018-09-29T06:17:10.622Z,85.38
2018-09-29T06:18:10.581Z,85.52
2018-09-29T06:19:10.613Z,85.48
2018-09-29T06:20:10.554Z,85.38
2018-09-29T06:21:10.557Z,85.06
2018-09-29T06:22:10.507Z,85.58
2018-09-29T06:23:10.537Z,85.17
2018-09-29T06:24:10.507Z,85.27
2018-09-29T06:25:10.535Z,84.55
2018-09-29T06:26:10.523Z,85.03
2018-09-29T06:27:10.521Z,85.34
2018-09-29T06:28:10.440Z,85.24
2018-09-29T06:29:10.530Z,85.55
2018-09-29T06:30:19.284Z,85.34
2018-09-29T06:31:10.503Z,85.24
2018-09-29T06:32:10.502Z,85.86
2018-09-29T06:33:10.556Z,84.51
2018-09-29T06:34:10.487Z,84.82
2018-09-29T06:35:10.368Z,85.44
2018-09-29T06:36:10.393Z,85.09
2018-09-29T06:37:10.421Z,85.40
2018-09-29T06:38:10.326Z,85.40
2018-09-29T06:39:10.358Z,85.40
2018-09-29T06:40:10.310Z,85.82
2018-09-29T06:41:10.365Z,85.40
2018-09-29T06:42:10.285Z,85.40
2018-09-29T06:43:10.292Z,85.82
2018-09-29T06:44:10.302Z,85.19
2018-09-29T06:45:10.261Z,85.40
2018-09-29T06:46:10.264Z,85.71
2018-09-29T06:47:10.248Z,85.57
2018-09-29T06:48:10.243Z,85.26
2018-09-29T06:49:10.267Z,85.26
2018-09-29T06:51:24.701Z,85.57
2018-09-29T06:52:24.507Z,85.78
2018-09-29T06:53:24.624Z,85.57
2018-09-29T06:54:24.373Z,85.53
2018-09-29T06:55:24.238Z,85.11
2018-09-29T06:56:24.255Z,85.84
2018-09-29T06:57:24.215Z,85.11
2018-09-29T06:58:24.357Z,85.32
2018-09-29T06:59:24.194Z,86.05
2018-09-29T07:00:24.166Z,86.15
2018-09-29T07:01:24.195Z,85.94
2018-09-29T07:02:24.142Z,85.60
2018-09-29T07:03:24.168Z,85.49
2018-09-29T07:04:24.155Z,86.11
2018-09-29T07:05:24.109Z,86.21
2018-09-29T07:06:24.119Z,86.01
2018-09-29T07:07:24.088Z,86.28
2018-09-29T07:08:24.085Z,86.52
2018-09-29T07:09:33.698Z,86.49
2018-09-29T07:10:24.387Z,86.44
2018-09-29T07:11:24.237Z,87.00
2018-09-29T07:12:24.220Z,86.13
2018-09-29T07:13:24.340Z,86.96
2018-09-29T07:14:24.167Z,87.17
2018-09-29T07:15:24.021Z,86.13
2018-09-29T07:16:24.065Z,85.37
2018-09-29T07:17:24.031Z,85.00
2018-09-29T07:18:23.982Z,85.58
2018-09-29T07:19:23.962Z,85.27
2018-09-29T07:20:23.999Z,85.17
2018-09-29T07:21:23.998Z,85.23
2018-09-29T07:22:23.951Z,85.13
2018-09-29T07:23:23.996Z,84.78
2018-09-29T07:24:23.917Z,84.57
2018-09-29T07:25:23.947Z,84.94
2018-09-29T07:26:23.890Z,85.05
2018-09-29T07:27:23.999Z,83.28
2018-09-29T07:28:31.935Z,82.01
2018-09-29T07:29:24.102Z,81.29
2018-09-29T07:30:24.190Z,81.70
2018-09-29T07:31:23.856Z,81.29
2018-09-29T07:32:23.927Z,80.98
2018-09-29T07:33:23.849Z,81.05
2018-09-29T07:34:23.795Z,80.94
2018-09-29T07:35:23.806Z,81.67
2018-09-29T07:36:23.799Z,81.67
2018-09-29T07:37:23.935Z,81.87
2018-09-29T07:38:23.756Z,81.62
2018-09-29T07:39:23.791Z,80.91
2018-09-29T07:40:23.738Z,80.91
2018-09-29T07:41:23.708Z,81.01
2018-09-29T07:42:23.755Z,81.11
2018-09-29T07:43:23.697Z,81.11
2018-09-29T07:44:23.705Z,80.66
2018-09-29T07:45:23.699Z,80.63
2018-09-29T07:46:23.652Z,80.21
2018-09-29T07:47:23.672Z,79.87
2018-09-29T07:48:31.881Z,77.00
2018-09-29T07:49:23.665Z,77.37
2018-09-29T07:50:23.692Z,78.09
2018-09-29T07:51:23.673Z,74.66
2018-09-29T07:52:23.625Z,74.60
2018-09-29T07:53:23.701Z,73.88
2018-09-29T07:54:23.770Z,71.80
2018-09-29T07:55:23.589Z,71.18
2018-09-29T07:56:23.550Z,73.10
2018-09-29T07:57:23.555Z,73.57
2018-09-29T07:58:23.578Z,70.16
2018-09-29T07:59:23.513Z,69.24
2018-09-29T08:00:23.502Z,66.78
2018-09-29T08:01:23.516Z,69.42
2018-09-29T08:02:23.468Z,68.57
2018-09-29T08:03:23.476Z,65.50
2018-09-29T08:04:23.450Z,65.60
2018-09-29T08:05:23.437Z,63.66
2018-09-29T08:06:23.522Z,64.58
2018-09-29T08:07:23.416Z,63.56
2018-09-29T08:08:23.417Z,64.48
2018-09-29T08:09:23.413Z,65.19
2018-09-29T08:10:23.389Z,66.62
2018-09-29T08:11:31.004Z,67.85
2018-09-29T08:12:23.435Z,69.28
2018-09-29T08:13:23.380Z,68.36
2018-09-29T08:14:23.380Z,68.97
2018-09-29T08:15:23.497Z,69.38
2018-09-29T08:16:23.402Z,69.59
2018-09-29T08:17:23.367Z,69.38
2018-09-29T08:18:23.325Z,65.19
2018-09-29T08:19:23.350Z,65.50
2018-09-29T08:20:23.268Z,65.06
2018-09-29T08:21:23.265Z,65.47
2018-09-29T08:22:23.293Z,65.34
2018-09-29T08:23:23.241Z,66.56
2018-09-29T08:24:23.305Z,65.23
2018-09-29T08:25:23.209Z,65.13
2018-09-29T08:26:23.205Z,65.44
2018-09-29T08:27:23.187Z,65.92
2018-09-29T08:28:23.217Z,65.95
2018-09-29T08:29:23.166Z,66.22
2018-09-29T08:30:32.820Z,65.17
2018-09-29T08:31:23.180Z,65.48
2018-09-29T08:32:23.346Z,64.97
2018-09-29T08:33:23.157Z,64.87
2018-09-29T08:34:23.310Z,65.28
2018-09-29T08:35:23.103Z,64.66
2018-09-29T08:36:23.161Z,62.82
2018-09-29T08:37:23.330Z,62.73
2018-09-29T08:38:23.126Z,61.50
2018-09-29T08:39:23.081Z,61.22
2018-09-29T08:40:23.131Z,62.82
2018-09-29T08:41:23.179Z,61.22
2018-09-29T08:42:23.345Z,61.83
2018-09-29T08:43:23.100Z,60.82
2018-09-29T08:44:23.055Z,62.11
2018-09-29T08:45:22.986Z,61.50
2018-09-29T08:46:23.021Z,60.89
2018-09-29T08:47:22.962Z,61.07
2018-09-29T08:48:22.954Z,60.86
2018-09-29T08:49:32.158Z,61.71
2018-09-29T08:50:22.999Z,61.71
2018-09-29T08:51:23.091Z,60.78
2018-09-29T08:52:23.019Z,60.99
2018-09-29T08:53:22.991Z,60.48
2018-09-29T08:54:23.054Z,60.17
2018-09-29T08:55:22.981Z,61.50
2018-09-29T08:56:22.913Z,62.01
2018-09-29T08:57:22.937Z,59.16
2018-09-29T08:58:22.972Z,59.87
2018-09-29T08:59:22.871Z,60.48
2018-09-29T09:00:22.833Z,61.80
2018-09-29T09:01:22.864Z,60.17
2018-09-29T09:02:22.812Z,60.78
2018-09-29T09:03:22.787Z,61.40
2018-09-29T09:04:22.821Z,61.19
2018-09-29T09:05:22.760Z,62.11
2018-09-29T09:06:22.748Z,62.80
2018-09-29T09:07:22.797Z,61.40
2018-09-29T09:08:31.974Z,59.33
2018-09-29T09:09:22.826Z,57.29
2018-09-29T09:10:22.742Z,58.72
2018-09-29T09:11:22.915Z,61.07
2018-09-29T09:12:22.719Z,60.35
2018-09-29T09:13:22.721Z,59.12
2018-09-29T09:14:22.769Z,60.25
2018-09-29T09:15:22.693Z,60.66
2018-09-29T09:16:22.683Z,61.37
2018-09-29T09:17:22.784Z,60.55
2018-09-29T09:18:22.631Z,59.23
2018-09-29T09:19:22.653Z,58.14
2018-09-29T09:20:22.714Z,58.23
2018-09-29T09:21:22.675Z,61.37
2018-09-29T09:22:30.659Z,60.45
2018-09-29T09:23:22.725Z,59.43
2018-09-29T09:24:22.630Z,61.47
2018-09-29T09:25:22.656Z,62.49
2018-09-29T09:26:22.526Z,60.86
2018-09-29T09:27:22.538Z,60.96
2018-09-29T09:28:22.534Z,60.22
2018-09-29T09:29:22.494Z,61.57
2018-09-29T09:30:22.581Z,59.23
2018-09-29T09:31:22.468Z,60.32
2018-09-29T09:32:22.463Z,59.00
2018-09-29T09:33:22.516Z,59.07
2018-09-29T09:34:22.434Z,59.07
2018-09-29T09:35:22.433Z,60.80
2018-09-29T09:36:22.416Z,62.54
2018-09-29T09:37:22.400Z,62.02
2018-09-29T09:38:22.391Z,61.21
2018-09-29T09:39:22.415Z,59.58
2018-09-29T09:40:22.392Z,57.44
2018-09-29T09:42:35.676Z,57.24
2018-09-29T09:43:35.863Z,57.54
2018-09-29T09:44:35.705Z,57.75
2018-09-29T09:45:35.734Z,58.64
2018-09-29T09:46:35.696Z,58.33
2018-09-29T09:47:35.622Z,57.31
2018-09-29T09:48:35.580Z,59.55
2018-09-29T09:49:35.594Z,60.27
2018-09-29T09:50:35.597Z,58.44
2018-09-29T09:51:35.546Z,56.29
2018-09-29T09:52:35.588Z,56.29
2018-09-29T09:53:35.525Z,56.90
2018-09-29T09:54:35.530Z,57.90
2018-09-29T09:55:35.500Z,57.59
2018-09-29T09:56:35.603Z,57.79
2018-09-29T09:57:35.479Z,56.57
2018-09-29T09:58:35.485Z,56.37
2018-09-29T09:59:35.456Z,55.02
2018-09-29T10:00:35.446Z,55.12
2018-09-29T10:01:44.709Z,55.33
2018-09-29T10:02:35.593Z,56.32
2018-09-29T10:03:35.491Z,57.74
2018-09-29T10:04:35.463Z,55.81
2018-09-29T10:05:35.402Z,57.41
2018-09-29T10:06:35.495Z,55.48
2018-09-29T10:07:35.410Z,55.99
2018-09-29T10:08:35.410Z,56.29
2018-09-29T10:09:35.370Z,53.96
2018-09-29T10:10:35.378Z,54.36
2018-09-29T10:11:35.360Z,52.23
2018-09-29T10:12:35.320Z,52.33
2018-09-29T10:13:35.401Z,53.14
2018-09-29T10:14:35.314Z,53.42
2018-09-29T10:15:35.278Z,55.35
2018-09-29T10:16:35.293Z,52.38
2018-09-29T10:17:35.430Z,53.70
2018-09-29T10:18:35.243Z,51.75
2018-09-29T10:19:44.348Z,53.17
2018-09-29T10:20:35.249Z,51.82
2018-09-29T10:21:35.210Z,51.21
2018-09-29T10:22:35.216Z,54.05
2018-09-29T10:23:35.191Z,53.32
2018-09-29T10:24:35.177Z,50.68
2018-09-29T10:25:35.206Z,50.28
2018-09-29T10:26:35.167Z,50.05
2018-09-29T10:27:35.410Z,48.94
2018-09-29T10:28:35.223Z,50.76
2018-09-29T10:29:35.250Z,47.82
2018-09-29T10:30:35.115Z,48.31
2018-09-29T10:31:35.157Z,50.54
2018-09-29T10:32:35.086Z,46.69
2018-09-29T10:33:35.124Z,48.03
2018-09-29T10:34:35.092Z,48.74
2018-09-29T10:35:35.117Z,48.33
2018-09-29T10:36:35.040Z,50.05
2018-09-29T10:37:35.030Z,49.95
2018-09-29T10:38:35.096Z,50.23
2018-09-29T10:39:44.365Z,48.11
2018-09-29T10:40:35.004Z,48.71
2018-09-29T10:41:34.986Z,48.18
2018-09-29T10:42:35.066Z,47.07
2018-09-29T10:43:34.962Z,47.58
2018-09-29T10:44:35.152Z,48.06
2018-09-29T10:45:35.026Z,46.84
2018-09-29T10:46:34.940Z,47.75
2018-09-29T10:47:34.927Z,46.95
2018-09-29T10:48:34.935Z,47.58
2018-09-29T10:49:34.892Z,47.15
2018-09-29T10:50:34.924Z,49.86
2018-09-29T10:51:34.890Z,46.52
2018-09-29T10:52:34.860Z,47.03
2018-09-29T10:53:34.884Z,47.33
2018-09-29T10:54:34.836Z,45.33
2018-09-29T10:55:43.899Z,48.46
2018-09-29T10:56:34.822Z,50.09
2018-09-29T10:57:34.824Z,48.03
2018-09-29T10:58:34.812Z,47.23
2018-09-29T10:59:34.839Z,47.23
2018-09-29T11:00:34.827Z,47.96
2018-09-29T11:01:34.837Z,46.67
2018-09-29T11:02:34.842Z,46.89
2018-09-29T11:03:34.831Z,46.56
2018-09-29T11:04:34.727Z,47.50
2018-09-29T11:05:34.713Z,47.88
2018-09-29T11:06:34.699Z,45.55
2018-09-29T11:07:34.787Z,48.46
2018-09-29T11:08:34.678Z,46.52
2018-09-29T11:09:34.684Z,45.55
2018-09-29T11:10:34.777Z,45.87
2018-09-29T11:11:34.730Z,47.11
2018-09-29T11:12:34.635Z,46.79
2018-09-29T11:13:34.625Z,47.09
2018-09-29T11:14:34.635Z,47.09
2018-09-29T11:15:34.706Z,46.77
2018-09-29T11:16:34.643Z,46.79
2018-09-29T11:17:34.578Z,47.58
2018-09-29T11:18:34.567Z,48.08
2018-09-29T11:19:34.567Z,47.15
2018-09-29T11:20:34.542Z,46.92
2018-09-29T11:21:34.558Z,45.03
2018-09-29T11:22:34.543Z,45.73
2018-09-29T11:23:34.507Z,45.41
2018-09-29T11:24:34.497Z,46.80
2018-09-29T11:25:34.586Z,45.29
2018-09-29T11:26:34.476Z,44.88
2018-09-29T11:27:34.528Z,45.41
2018-09-29T11:28:34.527Z,46.30
2018-09-29T11:29:34.445Z,46.40
2018-09-29T11:30:34.430Z,44.35
2018-09-29T11:31:34.441Z,43.75
2018-09-29T11:32:34.424Z,44.56
2018-09-29T11:33:34.397Z,44.78
2018-09-29T11:34:43.138Z,45.47
2018-09-29T11:35:34.413Z,45.57
2018-09-29T11:36:34.640Z,45.67
2018-09-29T11:37:34.403Z,44.96
2018-09-29T11:38:34.447Z,45.16
2018-09-29T11:39:34.329Z,46.58
2018-09-29T11:40:34.421Z,45.47
2018-09-29T11:41:34.307Z,44.86
2018-09-29T11:42:34.294Z,47.49
2018-09-29T11:43:34.311Z,47.79
2018-09-29T11:44:34.283Z,45.26
2018-09-29T11:45:34.264Z,45.97
2018-09-29T11:46:34.268Z,44.48
2018-09-29T11:47:34.335Z,45.81
2018-09-29T11:48:34.273Z,44.80
2018-09-29T11:49:34.220Z,46.92
2018-09-29T11:50:34.207Z,47.13
2018-09-29T11:51:34.193Z,46.04
2018-09-29T11:52:34.213Z,45.86
2018-09-29T11:53:34.175Z,46.89
2018-09-29T11:54:34.161Z,47.17
2018-09-29T11:55:34.177Z,46.34
2018-09-29T11:56:42.031Z,45.23
2018-09-29T11:57:34.219Z,46.42
2018-09-29T11:58:34.277Z,45.71
2018-09-29T11:59:34.205Z,45.41
2018-09-29T12:00:34.095Z,45.41
2018-09-29T12:01:34.090Z,45.91
2018-09-29T12:02:34.070Z,46.72
2018-09-29T12:03:34.058Z,45.41
2018-09-29T12:04:34.092Z,47.23
2018-09-29T12:05:34.039Z,45.29
2018-09-29T12:06:34.233Z,45.08
2018-09-29T12:07:34.118Z,44.60
2018-09-29T12:08:34.094Z,46.50
2018-09-29T12:09:34.005Z,42.96
2018-09-29T12:10:33.995Z,44.37
2018-09-29T12:11:34.004Z,45.67
2018-09-29T12:12:34.015Z,44.86
2018-09-29T12:13:33.945Z,43.14
2018-09-29T12:14:33.936Z,44.07
2018-09-29T12:15:43.987Z,43.06
2018-09-29T12:16:33.949Z,45.99
2018-09-29T12:17:33.951Z,43.77
2018-09-29T12:18:33.979Z,44.17
2018-09-29T12:19:33.976Z,44.07
2018-09-29T12:20:33.895Z,45.39
2018-09-29T12:21:33.945Z,45.79
2018-09-29T12:22:33.844Z,45.39
2018-09-29T12:23:33.834Z,44.96
2018-09-29T12:24:33.925Z,44.66
2018-09-29T12:25:33.811Z,43.73
2018-09-29T12:26:33.799Z,44.13
2018-09-29T12:27:33.860Z,43.10
2018-09-29T12:28:33.839Z,44.43
2018-09-29T12:29:33.810Z,43.12
2018-09-29T12:30:33.755Z,43.14
2018-09-29T12:31:33.774Z,45.25
2018-09-29T12:32:33.756Z,45.95
2018-09-29T12:33:33.738Z,44.64
2018-09-29T12:34:33.744Z,44.84
2018-09-29T12:35:41.347Z,44.43
2018-09-29T12:36:33.723Z,44.51
2018-09-29T12:37:33.751Z,42.70
2018-09-29T12:38:33.689Z,43.40
2018-09-29T12:39:33.723Z,44.31
2018-09-29T12:40:33.786Z,43.12
2018-09-29T12:41:33.655Z,42.92
2018-09-29T12:42:33.646Z,42.92
2018-09-29T12:43:33.648Z,43.04
2018-09-29T12:44:33.668Z,43.75
2018-09-29T12:45:33.604Z,44.56
2018-09-29T12:46:33.592Z,43.75
2018-09-29T12:47:33.607Z,45.57
2018-09-29T12:48:33.554Z,44.15
2018-09-29T12:49:33.546Z,43.57
2018-09-29T12:50:33.532Z,44.68
2018-09-29T12:51:33.637Z,43.49
2018-09-29T12:52:33.513Z,44.49
2018-09-29T12:53:33.496Z,44.58
2018-09-29T12:54:41.162Z,44.78
2018-09-29T12:55:33.497Z,43.14